sensor_id;sensor_type;location;lat;lon;timestamp;pressure;altitude;pressure_sealevel;temperature;humidity
13594;BME280;6449;47.666;9.160;2022-08-16T00:00:38;96469.25;;;17.48;91.50
13594;BME280;6449;47.666;9.160;2022-08-16T00:05:32;96477.47;;;17.70;90.14
13594;BME280;6449;47.666;9.160;2022-08-16T00:10:41;96476.56;;;18.02;88.63
13594;BME280;6449;47.666;9.160;2022-08-16T00:15:38;96480.94;;;18.18;87.79
13594;BME280;6449;47.666;9.160;2022-08-16T00:20:46;96476.38;;;18.35;87.84
13594;BME280;6449;47.666;9.160;2022-08-16T00:25:43;96472.69;;;18.44;85.89
13594;BME280;6449;47.666;9.160;2022-08-16T00:30:56;96489.00;;;17.93;87.48
13594;BME280;6449;47.666;9.160;2022-08-16T00:35:52;96493.84;;;17.90;88.33
13594;BME280;6449;47.666;9.160;2022-08-16T00:40:52;96492.47;;;18.02;88.41
13594;BME280;6449;47.666;9.160;2022-08-16T00:45:53;96487.84;;;17.96;87.50
13594;BME280;6449;47.666;9.160;2022-08-16T00:50:51;96485.34;;;18.02;86.87
13594;BME280;6449;47.666;9.160;2022-08-16T00:55:51;96488.91;;;17.70;88.19
13594;BME280;6449;47.666;9.160;2022-08-16T01:00:47;96495.59;;;17.58;88.43
13594;BME280;6449;47.666;9.160;2022-08-16T01:05:46;96490.31;;;17.42;89.35
13594;BME280;6449;47.666;9.160;2022-08-16T01:10:40;96495.63;;;17.42;89.34
13594;BME280;6449;47.666;9.160;2022-08-16T01:15:41;96494.91;;;17.64;89.06
13594;BME280;6449;47.666;9.160;2022-08-16T01:20:47;96485.84;;;17.42;89.16
13594;BME280;6449;47.666;9.160;2022-08-16T01:25:49;96496.56;;;17.57;88.47
13594;BME280;6449;47.666;9.160;2022-08-16T01:31:04;96496.31;;;17.11;91.63
13594;BME280;6449;47.666;9.160;2022-08-16T01:36:04;96497.94;;;17.37;90.81
13594;BME280;6449;47.666;9.160;2022-08-16T01:41:09;96498.56;;;17.55;90.21
13594;BME280;6449;47.666;9.160;2022-08-16T01:46:23;96496.91;;;17.54;90.44
13594;BME280;6449;47.666;9.160;2022-08-16T01:51:31;96495.91;;;17.47;89.95
13594;BME280;6449;47.666;9.160;2022-08-16T01:56:33;96491.78;;;17.44;90.05
13594;BME280;6449;47.666;9.160;2022-08-16T02:01:29;96497.75;;;17.46;91.64
13594;BME280;6449;47.666;9.160;2022-08-16T02:06:23;96485.63;;;17.60;90.33
13594;BME280;6449;47.666;9.160;2022-08-16T02:11:29;96483.94;;;17.67;89.90
13594;BME280;6449;47.666;9.160;2022-08-16T02:16:43;96487.97;;;17.47;90.93
13594;BME280;6449;47.666;9.160;2022-08-16T02:21:37;96483.94;;;17.67;90.72
13594;BME280;6449;47.666;9.160;2022-08-16T02:26:51;96475.28;;;17.18;91.66
13594;BME280;6449;47.666;9.160;2022-08-16T02:31:49;96475.06;;;17.36;90.85
13594;BME280;6449;47.666;9.160;2022-08-16T02:36:55;96461.03;;;17.19;90.20
13594;BME280;6449;47.666;9.160;2022-08-16T02:41:51;96464.50;;;17.19;89.41
13594;BME280;6449;47.666;9.160;2022-08-16T02:46:46;96456.88;;;17.24;90.75
13594;BME280;6449;47.666;9.160;2022-08-16T02:51:44;96458.53;;;17.25;89.48
13594;BME280;6449;47.666;9.160;2022-08-16T02:56:38;96451.78;;;16.66;92.69
13594;BME280;6449;47.666;9.160;2022-08-16T03:01:32;96454.91;;;16.53;92.45
13594;BME280;6449;47.666;9.160;2022-08-16T03:06:30;96441.34;;;16.64;92.63
13594;BME280;6449;47.666;9.160;2022-08-16T03:11:33;96430.28;;;16.77;91.52
13594;BME280;6449;47.666;9.160;2022-08-16T03:16:27;96434.91;;;16.99;90.36
13594;BME280;6449;47.666;9.160;2022-08-16T03:21:31;96434.56;;;17.11;89.16
13594;BME280;6449;47.666;9.160;2022-08-16T03:26:29;96433.06;;;17.16;88.19
13594;BME280;6449;47.666;9.160;2022-08-16T03:31:23;96430.41;;;17.08;87.37
13594;BME280;6449;47.666;9.160;2022-08-16T03:36:25;96424.50;;;16.82;90.19
13594;BME280;6449;47.666;9.160;2022-08-16T03:41:25;96430.75;;;16.64;89.95
13594;BME280;6449;47.666;9.160;2022-08-16T03:46:38;96436.09;;;16.81;90.32
13594;BME280;6449;47.666;9.160;2022-08-16T03:51:41;96432.41;;;16.98;89.60
13594;BME280;6449;47.666;9.160;2022-08-16T03:56:36;96433.09;;;16.59;90.36
13594;BME280;6449;47.666;9.160;2022-08-16T04:01:49;96427.81;;;16.75;90.59
13594;BME280;6449;47.666;9.160;2022-08-16T04:06:44;96427.94;;;16.49;91.31
13594;BME280;6449;47.666;9.160;2022-08-16T04:11:39;96428.63;;;16.35;90.70
13594;BME280;6449;47.666;9.160;2022-08-16T04:16:33;96419.84;;;16.43;91.02
13594;BME280;6449;47.666;9.160;2022-08-16T04:21:26;96420.34;;;16.55;90.86
13594;BME280;6449;47.666;9.160;2022-08-16T04:26:20;96436.72;;;16.58;89.79
13594;BME280;6449;47.666;9.160;2022-08-16T04:31:16;96454.44;;;16.58;90.65
13594;BME280;6449;47.666;9.160;2022-08-16T04:36:10;96455.78;;;16.78;89.70
13594;BME280;6449;47.666;9.160;2022-08-16T04:41:11;96451.31;;;16.79;90.67
13594;BME280;6449;47.666;9.160;2022-08-16T04:46:05;96455.59;;;16.88;91.00
13594;BME280;6449;47.666;9.160;2022-08-16T04:51:20;96455.94;;;16.76;92.27
13594;BME280;6449;47.666;9.160;2022-08-16T04:56:14;96451.94;;;16.64;94.57
13594;BME280;6449;47.666;9.160;2022-08-16T05:01:08;96456.75;;;16.77;94.27
13594;BME280;6449;47.666;9.160;2022-08-16T05:06:02;96452.63;;;16.83;95.04
13594;BME280;6449;47.666;9.160;2022-08-16T05:11:03;96456.56;;;16.46;97.62
13594;BME280;6449;47.666;9.160;2022-08-16T05:15:59;96464.56;;;16.79;97.21
13594;BME280;6449;47.666;9.160;2022-08-16T05:20:53;96462.03;;;17.10;96.06
13594;BME280;6449;47.666;9.160;2022-08-16T05:26:04;96463.00;;;17.25;96.12
13594;BME280;6449;47.666;9.160;2022-08-16T05:31:10;96466.78;;;17.39;96.13
13594;BME280;6449;47.666;9.160;2022-08-16T05:36:06;96461.28;;;17.57;96.64
13594;BME280;6449;47.666;9.160;2022-08-16T05:41:07;96457.25;;;17.77;97.87
13594;BME280;6449;47.666;9.160;2022-08-16T05:46:05;96460.34;;;17.89;98.74
13594;BME280;6449;47.666;9.160;2022-08-16T05:51:19;96458.38;;;18.22;96.36
13594;BME280;6449;47.666;9.160;2022-08-16T05:56:31;96468.13;;;18.29;99.89
13594;BME280;6449;47.666;9.160;2022-08-16T06:01:28;96454.03;;;18.52;96.54
13594;BME280;6449;47.666;9.160;2022-08-16T06:06:29;96456.75;;;18.44;99.28
13594;BME280;6449;47.666;9.160;2022-08-16T06:11:24;96454.44;;;18.41;99.29
13594;BME280;6449;47.666;9.160;2022-08-16T06:16:21;96450.53;;;18.51;99.76
13594;BME280;6449;47.666;9.160;2022-08-16T06:21:18;96467.06;;;18.39;100.00
13594;BME280;6449;47.666;9.160;2022-08-16T06:26:14;96464.91;;;18.65;99.58
13594;BME280;6449;47.666;9.160;2022-08-16T06:31:12;96470.50;;;18.93;96.95
13594;BME280;6449;47.666;9.160;2022-08-16T06:36:07;96465.69;;;18.97;95.90
13594;BME280;6449;47.666;9.160;2022-08-16T06:41:03;96465.72;;;18.89;95.49
13594;BME280;6449;47.666;9.160;2022-08-16T06:46:07;96466.75;;;18.88;96.18
13594;BME280;6449;47.666;9.160;2022-08-16T06:51:03;96460.41;;;18.89;98.52
13594;BME280;6449;47.666;9.160;2022-08-16T06:55:59;96466.63;;;18.81;100.00
13594;BME280;6449;47.666;9.160;2022-08-16T07:00:57;96468.75;;;18.86;100.00
13594;BME280;6449;47.666;9.160;2022-08-16T07:05:51;96459.84;;;19.16;98.64
13594;BME280;6449;47.666;9.160;2022-08-16T07:10:45;96468.88;;;19.45;96.16
13594;BME280;6449;47.666;9.160;2022-08-16T07:15:40;96468.63;;;19.69;93.79
13594;BME280;6449;47.666;9.160;2022-08-16T07:20:42;96469.72;;;19.60;96.88
13594;BME280;6449;47.666;9.160;2022-08-16T07:25:39;96482.00;;;19.76;96.10
13594;BME280;6449;47.666;9.160;2022-08-16T07:30:33;96462.72;;;20.03;96.88
13594;BME280;6449;47.666;9.160;2022-08-16T07:35:39;96460.59;;;20.13;94.43
13594;BME280;6449;47.666;9.160;2022-08-16T07:40:36;96474.13;;;20.33;93.48
13594;BME280;6449;47.666;9.160;2022-08-16T07:45:50;96470.09;;;20.74;92.90
13594;BME280;6449;47.666;9.160;2022-08-16T07:50:46;96477.00;;;20.89;91.21
13594;BME280;6449;47.666;9.160;2022-08-16T07:55:49;96477.03;;;20.96;91.08
13594;BME280;6449;47.666;9.160;2022-08-16T08:00:45;96476.94;;;21.04;89.90
13594;BME280;6449;47.666;9.160;2022-08-16T08:05:38;96489.47;;;21.32;85.85
13594;BME280;6449;47.666;9.160;2022-08-16T08:10:35;96484.88;;;21.82;86.63
13594;BME280;6449;47.666;9.160;2022-08-16T08:15:29;96487.41;;;21.96;85.78
13594;BME280;6449;47.666;9.160;2022-08-16T08:20:25;96486.19;;;21.99;84.83
13594;BME280;6449;47.666;9.160;2022-08-16T08:25:19;96483.72;;;22.32;81.33
13594;BME280;6449;47.666;9.160;2022-08-16T08:30:15;96497.25;;;22.31;81.16
13594;BME280;6449;47.666;9.160;2022-08-16T08:35:29;96484.00;;;22.64;79.82
13594;BME280;6449;47.666;9.160;2022-08-16T08:40:26;96495.16;;;22.87;78.93
13594;BME280;6449;47.666;9.160;2022-08-16T08:45:22;96497.66;;;23.09;76.03
13594;BME280;6449;47.666;9.160;2022-08-16T08:50:36;96491.28;;;23.10;75.13
13594;BME280;6449;47.666;9.160;2022-08-16T08:55:29;96491.50;;;23.28;76.83
13594;BME280;6449;47.666;9.160;2022-08-16T09:00:25;96488.22;;;23.39;73.38
13594;BME280;6449;47.666;9.160;2022-08-16T09:05:23;96491.91;;;23.51;72.73
13594;BME280;6449;47.666;9.160;2022-08-16T09:10:28;96498.09;;;23.72;71.75
13594;BME280;6449;47.666;9.160;2022-08-16T09:15:23;96493.13;;;23.82;69.89
13594;BME280;6449;47.666;9.160;2022-08-16T09:20:27;96496.44;;;23.71;68.50
13594;BME280;6449;47.666;9.160;2022-08-16T09:25:22;96489.38;;;23.90;67.71
13594;BME280;6449;47.666;9.160;2022-08-16T09:30:26;96488.50;;;24.09;65.93
13594;BME280;6449;47.666;9.160;2022-08-16T09:35:27;96482.28;;;24.22;65.61
13594;BME280;6449;47.666;9.160;2022-08-16T09:40:22;96477.91;;;24.27;61.41
13594;BME280;6449;47.666;9.160;2022-08-16T09:45:35;96472.69;;;24.52;59.98
13594;BME280;6449;47.666;9.160;2022-08-16T09:50:31;96475.44;;;24.71;60.75
13594;BME280;6449;47.666;9.160;2022-08-16T09:55:30;96476.91;;;24.73;60.73
13594;BME280;6449;47.666;9.160;2022-08-16T10:00:36;96470.19;;;24.89;60.16
13594;BME280;6449;47.666;9.160;2022-08-16T10:05:36;96470.38;;;24.94;59.69
13594;BME280;6449;47.666;9.160;2022-08-16T10:10:30;96467.41;;;25.02;58.27
13594;BME280;6449;47.666;9.160;2022-08-16T10:15:24;96450.38;;;25.22;58.13
13594;BME280;6449;47.666;9.160;2022-08-16T10:20:23;96471.53;;;25.30;58.58
13594;BME280;6449;47.666;9.160;2022-08-16T10:25:18;96464.13;;;25.50;58.71
13594;BME280;6449;47.666;9.160;2022-08-16T10:30:31;96456.09;;;25.50;54.30
13594;BME280;6449;47.666;9.160;2022-08-16T10:35:32;96462.28;;;25.76;55.26
13594;BME280;6449;47.666;9.160;2022-08-16T10:40:38;96454.38;;;25.81;53.01
13594;BME280;6449;47.666;9.160;2022-08-16T10:45:36;96450.03;;;25.80;50.89
13594;BME280;6449;47.666;9.160;2022-08-16T10:50:35;96466.47;;;25.90;51.80
13594;BME280;6449;47.666;9.160;2022-08-16T10:55:28;96462.41;;;25.81;51.64
13594;BME280;6449;47.666;9.160;2022-08-16T11:00:37;96446.88;;;25.65;49.78
13594;BME280;6449;47.666;9.160;2022-08-16T11:05:38;96450.59;;;25.64;50.61
13594;BME280;6449;47.666;9.160;2022-08-16T11:10:50;96431.63;;;25.83;46.34
13594;BME280;6449;47.666;9.160;2022-08-16T11:15:58;96437.13;;;26.07;45.59
13594;BME280;6449;47.666;9.160;2022-08-16T11:21:14;96441.34;;;26.33;46.19
13594;BME280;6449;47.666;9.160;2022-08-16T11:26:20;96439.25;;;26.35;46.56
13594;BME280;6449;47.666;9.160;2022-08-16T11:31:16;96440.69;;;26.19;48.49
13594;BME280;6449;47.666;9.160;2022-08-16T11:36:09;96453.31;;;26.19;50.52
13594;BME280;6449;47.666;9.160;2022-08-16T11:41:20;96459.88;;;26.23;51.87
13594;BME280;6449;47.666;9.160;2022-08-16T11:46:15;96454.13;;;26.37;50.83
13594;BME280;6449;47.666;9.160;2022-08-16T11:51:29;96445.22;;;26.37;48.02
13594;BME280;6449;47.666;9.160;2022-08-16T11:56:24;96439.25;;;26.35;48.19
13594;BME280;6449;47.666;9.160;2022-08-16T12:01:37;96432.66;;;26.31;47.59
13594;BME280;6449;47.666;9.160;2022-08-16T12:06:47;96436.13;;;26.38;47.36
13594;BME280;6449;47.666;9.160;2022-08-16T12:11:46;96425.34;;;26.38;46.77
13594;BME280;6449;47.666;9.160;2022-08-16T12:16:44;96415.94;;;26.47;45.70
13594;BME280;6449;47.666;9.160;2022-08-16T12:21:46;96417.78;;;26.65;46.49
13594;BME280;6449;47.666;9.160;2022-08-16T12:26:52;96418.59;;;26.66;47.26
13594;BME280;6449;47.666;9.160;2022-08-16T12:31:46;96406.78;;;26.67;46.60
13594;BME280;6449;47.666;9.160;2022-08-16T12:37:02;96406.63;;;26.61;46.83
13594;BME280;6449;47.666;9.160;2022-08-16T12:42:05;96408.84;;;26.53;47.71
13594;BME280;6449;47.666;9.160;2022-08-16T12:47:00;96391.75;;;26.47;47.23
13594;BME280;6449;47.666;9.160;2022-08-16T12:52:14;96386.75;;;26.62;47.77
13594;BME280;6449;47.666;9.160;2022-08-16T12:57:26;96387.84;;;26.73;48.25
13594;BME280;6449;47.666;9.160;2022-08-16T13:02:27;96378.69;;;26.62;46.82
13594;BME280;6449;47.666;9.160;2022-08-16T13:07:27;96379.91;;;26.78;46.92
13594;BME280;6449;47.666;9.160;2022-08-16T13:12:35;96372.88;;;26.66;46.90
13594;BME280;6449;47.666;9.160;2022-08-16T13:17:33;96368.63;;;26.58;46.27
13594;BME280;6449;47.666;9.160;2022-08-16T13:22:35;96372.88;;;26.66;47.47
13594;BME280;6449;47.666;9.160;2022-08-16T13:27:29;96360.34;;;26.59;46.53
13594;BME280;6449;47.666;9.160;2022-08-16T13:32:44;96368.59;;;26.46;47.74
13594;BME280;6449;47.666;9.160;2022-08-16T13:37:42;96358.09;;;26.45;46.99
13594;BME280;6449;47.666;9.160;2022-08-16T13:42:35;96354.50;;;26.62;45.95
13594;BME280;6449;47.666;9.160;2022-08-16T13:47:34;96345.84;;;26.60;45.66
13594;BME280;6449;47.666;9.160;2022-08-16T13:52:29;96357.75;;;26.53;46.34
13594;BME280;6449;47.666;9.160;2022-08-16T13:57:30;96354.97;;;26.59;46.14
13594;BME280;6449;47.666;9.160;2022-08-16T14:02:45;96349.47;;;26.66;45.64
13594;BME280;6449;47.666;9.160;2022-08-16T14:07:41;96340.47;;;26.60;45.67
13594;BME280;6449;47.666;9.160;2022-08-16T14:12:41;96347.97;;;26.70;46.47
13594;BME280;6449;47.666;9.160;2022-08-16T14:17:35;96339.41;;;26.61;46.89
13594;BME280;6449;47.666;9.160;2022-08-16T14:22:50;96337.47;;;26.80;47.34
13594;BME280;6449;47.666;9.160;2022-08-16T14:27:46;96323.75;;;26.70;46.24
13594;BME280;6449;47.666;9.160;2022-08-16T14:32:45;96326.00;;;26.85;45.71
13594;BME280;6449;47.666;9.160;2022-08-16T14:37:42;96324.72;;;26.87;44.71
13594;BME280;6449;47.666;9.160;2022-08-16T14:42:45;96321.09;;;26.94;44.81
13594;BME280;6449;47.666;9.160;2022-08-16T14:47:39;96324.25;;;26.90;44.19
13594;BME280;6449;47.666;9.160;2022-08-16T14:52:33;96328.91;;;26.83;45.11
13594;BME280;6449;47.666;9.160;2022-08-16T14:57:48;96327.16;;;26.89;45.18
13594;BME280;6449;47.666;9.160;2022-08-16T15:02:50;96322.00;;;26.87;44.51
13594;BME280;6449;47.666;9.160;2022-08-16T15:07:45;96329.59;;;26.79;46.27
13594;BME280;6449;47.666;9.160;2022-08-16T15:12:41;96322.25;;;26.86;45.32
13594;BME280;6449;47.666;9.160;2022-08-16T15:17:38;96308.13;;;26.90;43.12
13594;BME280;6449;47.666;9.160;2022-08-16T15:22:36;96320.25;;;26.93;45.71
13594;BME280;6449;47.666;9.160;2022-08-16T15:27:32;96315.69;;;26.82;45.95
13594;BME280;6449;47.666;9.160;2022-08-16T15:32:27;96309.88;;;26.85;45.36
13594;BME280;6449;47.666;9.160;2022-08-16T15:37:23;96307.19;;;26.85;44.94
13594;BME280;6449;47.666;9.160;2022-08-16T15:42:33;96317.13;;;26.96;46.75
13594;BME280;6449;47.666;9.160;2022-08-16T15:47:27;96312.78;;;26.83;46.00
13594;BME280;6449;47.666;9.160;2022-08-16T15:52:27;96312.19;;;26.81;44.50
13594;BME280;6449;47.666;9.160;2022-08-16T15:57:22;96310.69;;;26.85;44.70
13594;BME280;6449;47.666;9.160;2022-08-16T16:02:16;96310.56;;;26.80;45.57
13594;BME280;6449;47.666;9.160;2022-08-16T16:07:19;96295.81;;;26.83;43.58
13594;BME280;6449;47.666;9.160;2022-08-16T16:12:14;96306.25;;;26.91;44.44
13594;BME280;6449;47.666;9.160;2022-08-16T16:17:27;96301.19;;;26.95;43.66
13594;BME280;6449;47.666;9.160;2022-08-16T16:22:21;96308.00;;;26.85;44.94
13594;BME280;6449;47.666;9.160;2022-08-16T16:27:18;96302.59;;;26.97;44.17
13594;BME280;6449;47.666;9.160;2022-08-16T16:32:13;96313.25;;;27.04;43.95
13594;BME280;6449;47.666;9.160;2022-08-16T16:37:08;96305.75;;;27.06;44.29
13594;BME280;6449;47.666;9.160;2022-08-16T16:42:03;96304.59;;;27.02;44.77
13594;BME280;6449;47.666;9.160;2022-08-16T16:47:03;96309.25;;;26.95;46.23
13594;BME280;6449;47.666;9.160;2022-08-16T16:51:59;96310.06;;;26.95;46.25
13594;BME280;6449;47.666;9.160;2022-08-16T16:56:58;96314.41;;;26.84;46.02
13594;BME280;6449;47.666;9.160;2022-08-16T17:01:52;96304.25;;;26.75;46.90
13594;BME280;6449;47.666;9.160;2022-08-16T17:07:07;96309.72;;;26.68;48.23
13594;BME280;6449;47.666;9.160;2022-08-16T17:12:03;96298.13;;;26.68;47.92
13594;BME280;6449;47.666;9.160;2022-08-16T17:16:57;96303.19;;;26.76;49.03
13594;BME280;6449;47.666;9.160;2022-08-16T17:21:50;96305.75;;;26.71;50.15
13594;BME280;6449;47.666;9.160;2022-08-16T17:26:46;96308.19;;;26.60;50.48
13594;BME280;6449;47.666;9.160;2022-08-16T17:31:47;96308.75;;;26.51;51.40
13594;BME280;6449;47.666;9.160;2022-08-16T17:36:40;96304.81;;;26.53;50.68
13594;BME280;6449;47.666;9.160;2022-08-16T17:41:46;96303.63;;;26.49;49.96
13594;BME280;6449;47.666;9.160;2022-08-16T17:46:40;96299.63;;;26.52;48.51
13594;BME280;6449;47.666;9.160;2022-08-16T17:51:43;96308.72;;;26.39;50.45
13594;BME280;6449;47.666;9.160;2022-08-16T17:56:36;96303.50;;;26.44;48.02
13594;BME280;6449;47.666;9.160;2022-08-16T18:01:34;96311.25;;;26.22;49.22
13594;BME280;6449;47.666;9.160;2022-08-16T18:06:28;96302.38;;;26.22;47.13
13594;BME280;6449;47.666;9.160;2022-08-16T18:11:21;96315.78;;;26.10;48.30
13594;BME280;6449;47.666;9.160;2022-08-16T18:16:17;96308.25;;;26.00;48.45
13594;BME280;6449;47.666;9.160;2022-08-16T18:21:14;96309.47;;;25.86;49.01
13594;BME280;6449;47.666;9.160;2022-08-16T18:26:25;96315.59;;;25.56;50.52
13594;BME280;6449;47.666;9.160;2022-08-16T18:31:18;96319.78;;;25.34;51.97
13594;BME280;6449;47.666;9.160;2022-08-16T18:36:13;96321.16;;;25.00;52.66
13594;BME280;6449;47.666;9.160;2022-08-16T18:41:12;96326.59;;;24.68;52.79
13594;BME280;6449;47.666;9.160;2022-08-16T18:46:05;96331.66;;;24.51;52.34
13594;BME280;6449;47.666;9.160;2022-08-16T18:50:59;96339.41;;;24.28;54.38
13594;BME280;6449;47.666;9.160;2022-08-16T18:56:01;96348.44;;;24.02;54.37
13594;BME280;6449;47.666;9.160;2022-08-16T19:00:56;96350.28;;;24.01;55.54
13594;BME280;6449;47.666;9.160;2022-08-16T19:05:55;96350.22;;;24.15;54.77
13594;BME280;6449;47.666;9.160;2022-08-16T19:10:50;96355.88;;;24.00;55.29
13594;BME280;6449;47.666;9.160;2022-08-16T19:15:47;96370.88;;;24.01;56.22
13594;BME280;6449;47.666;9.160;2022-08-16T19:20:42;96370.44;;;24.11;56.52
13594;BME280;6449;47.666;9.160;2022-08-16T19:25:39;96376.47;;;23.99;58.73
13594;BME280;6449;47.666;9.160;2022-08-16T19:30:46;96372.34;;;23.97;59.23
13594;BME280;6449;47.666;9.160;2022-08-16T19:35:40;96372.56;;;23.95;59.82
13594;BME280;6449;47.666;9.160;2022-08-16T19:40:33;96370.81;;;23.76;60.66
13594;BME280;6449;47.666;9.160;2022-08-16T19:45:29;96378.03;;;23.69;62.54
13594;BME280;6449;47.666;9.160;2022-08-16T19:50:24;96368.31;;;23.81;62.47
13594;BME280;6449;47.666;9.160;2022-08-16T19:55:28;96363.78;;;23.82;63.33
13594;BME280;6449;47.666;9.160;2022-08-16T20:00:25;96364.16;;;23.92;63.58
13594;BME280;6449;47.666;9.160;2022-08-16T20:05:31;96357.25;;;23.71;64.62
13594;BME280;6449;47.666;9.160;2022-08-16T20:10:27;96360.34;;;23.61;65.57
13594;BME280;6449;47.666;9.160;2022-08-16T20:15:24;96356.53;;;23.11;67.78
13594;BME280;6449;47.666;9.160;2022-08-16T20:20:24;96361.69;;;22.86;70.47
13594;BME280;6449;47.666;9.160;2022-08-16T20:25:23;96361.09;;;22.97;70.46
13594;BME280;6449;47.666;9.160;2022-08-16T20:30:20;96358.59;;;23.09;69.57
13594;BME280;6449;47.666;9.160;2022-08-16T20:35:18;96363.56;;;22.85;69.38
13594;BME280;6449;47.666;9.160;2022-08-16T20:40:22;96369.72;;;22.66;70.05
13594;BME280;6449;47.666;9.160;2022-08-16T20:45:27;96372.38;;;22.79;69.50
13594;BME280;6449;47.666;9.160;2022-08-16T20:50:22;96369.25;;;22.42;69.50
13594;BME280;6449;47.666;9.160;2022-08-16T20:55:17;96379.34;;;22.34;70.23
13594;BME280;6449;47.666;9.160;2022-08-16T21:00:13;96373.81;;;22.48;69.29
13594;BME280;6449;47.666;9.160;2022-08-16T21:05:09;96370.09;;;22.49;69.03
13594;BME280;6449;47.666;9.160;2022-08-16T21:10:03;96365.94;;;22.14;68.22
13594;BME280;6449;47.666;9.160;2022-08-16T21:15:05;96368.16;;;22.10;67.80
13594;BME280;6449;47.666;9.160;2022-08-16T21:20:01;96380.25;;;22.06;67.15
13594;BME280;6449;47.666;9.160;2022-08-16T21:24:59;96384.34;;;22.02;66.88
13594;BME280;6449;47.666;9.160;2022-08-16T21:29:53;96393.06;;;21.69;66.97
13594;BME280;6449;47.666;9.160;2022-08-16T21:34:46;96398.16;;;21.64;66.87
13594;BME280;6449;47.666;9.160;2022-08-16T21:39:41;96394.25;;;21.67;67.50
13594;BME280;6449;47.666;9.160;2022-08-16T21:44:35;96398.31;;;22.04;67.16
13594;BME280;6449;47.666;9.160;2022-08-16T21:49:30;96415.13;;;21.98;65.73
13594;BME280;6449;47.666;9.160;2022-08-16T21:54:23;96410.22;;;22.02;65.83
13594;BME280;6449;47.666;9.160;2022-08-16T21:59:18;96409.41;;;21.94;65.66
13594;BME280;6449;47.666;9.160;2022-08-16T22:04:12;96420.25;;;21.93;66.67
13594;BME280;6449;47.666;9.160;2022-08-16T22:09:27;96420.78;;;21.75;65.74
13594;BME280;6449;47.666;9.160;2022-08-16T22:14:21;96426.34;;;21.74;67.98
13594;BME280;6449;47.666;9.160;2022-08-16T22:19:15;96424.25;;;21.69;69.07
13594;BME280;6449;47.666;9.160;2022-08-16T22:24:09;96418.56;;;21.44;69.46
13594;BME280;6449;47.666;9.160;2022-08-16T22:29:07;96417.28;;;21.68;68.63
13594;BME280;6449;47.666;9.160;2022-08-16T22:34:03;96419.16;;;21.39;70.16
13594;BME280;6449;47.666;9.160;2022-08-16T22:38:59;96412.16;;;21.32;70.33
13594;BME280;6449;47.666;9.160;2022-08-16T22:43:55;96414.00;;;21.31;71.90
13594;BME280;6449;47.666;9.160;2022-08-16T22:48:48;96409.38;;;21.47;72.03
13594;BME280;6449;47.666;9.160;2022-08-16T22:53:43;96411.75;;;21.35;71.65
13594;BME280;6449;47.666;9.160;2022-08-16T22:58:37;96410.81;;;21.21;72.76
13594;BME280;6449;47.666;9.160;2022-08-16T23:03:30;96409.31;;;20.84;75.70
13594;BME280;6449;47.666;9.160;2022-08-16T23:08:26;96412.75;;;20.56;77.23
13594;BME280;6449;47.666;9.160;2022-08-16T23:13:32;96404.88;;;20.98;75.73
13594;BME280;6449;47.666;9.160;2022-08-16T23:18:26;96395.03;;;20.98;75.14
13594;BME280;6449;47.666;9.160;2022-08-16T23:23:22;96399.75;;;20.68;76.80
13594;BME280;6449;47.666;9.160;2022-08-16T23:28:18;96407.34;;;20.71;78.52
13594;BME280;6449;47.666;9.160;2022-08-16T23:33:14;96399.34;;;20.71;78.11
13594;BME280;6449;47.666;9.160;2022-08-16T23:38:08;96393.03;;;20.72;78.55
13594;BME280;6449;47.666;9.160;2022-08-16T23:43:25;96378.44;;;20.47;80.57
13594;BME280;6449;47.666;9.160;2022-08-16T23:48:25;96372.81;;;20.56;80.45
13594;BME280;6449;47.666;9.160;2022-08-16T23:53:23;96375.78;;;20.47;79.56
13594;BME280;6449;47.666;9.160;2022-08-16T23:58:20;96381.75;;;20.12;82.12
